Strawtown, Indiana
Current Conditions -  °F | °C
As of 9:35 AM on Tuesday 21 Oct 2014 (Local Time) from KMQJ Reporting Station
Broken Clouds Broken Clouds  
Wind Chill: 50°   Ceiling: 3000
Heat Index: 50°   Visibility: 10mi
Dew Point: 41°   Wind: 12mph
Humidity: 71%   Direction: 350°N
Pressure: 30.07"   Gusts: NA
Location:  40.0533°N, 85.9252°W
Report Text: KMQJ 211335Z AUTO 35010KT 10SM SCT018 BKN030 BKN050 10/05 A3007 RMK AO1
Loading
Personal Weather Stations






























Interactive Weather Map
Tropical Storm Tracking
New forecast layout! Learn more

10-Day Weather Forecast

Advertisements
Track Severe Weather on mobile